sensor_id;sensor_type;location;lat;lon;timestamp;pressure;altitude;pressure_sealevel;temperature;humidity
29825;BME280;16713;52.916;12.834;2022-10-30T00:00:43;101288.19;;;12.30;87.25
29825;BME280;16713;52.916;12.834;2022-10-30T00:03:11;101287.31;;;12.42;86.46
29825;BME280;16713;52.916;12.834;2022-10-30T00:05:47;101285.78;;;12.44;85.48
29825;BME280;16713;52.916;12.834;2022-10-30T00:08:16;101284.28;;;12.47;84.89
29825;BME280;16713;52.916;12.834;2022-10-30T00:10:43;101283.84;;;12.60;85.41
29825;BME280;16713;52.916;12.834;2022-10-30T00:13:10;101275.03;;;12.67;84.86
29825;BME280;16713;52.916;12.834;2022-10-30T00:15:36;101274.66;;;12.68;85.01
29825;BME280;16713;52.916;12.834;2022-10-30T00:18:03;101265.69;;;12.71;83.42
29825;BME280;16713;52.916;12.834;2022-10-30T00:20:30;101266.84;;;12.70;83.58
29825;BME280;16713;52.916;12.834;2022-10-30T00:22:56;101268.34;;;12.68;84.52
29825;BME280;16713;52.916;12.834;2022-10-30T00:25:23;101272.09;;;12.75;83.78
29825;BME280;16713;52.916;12.834;2022-10-30T00:27:49;101262.31;;;12.78;83.28
29825;BME280;16713;52.916;12.834;2022-10-30T00:30:16;101258.75;;;12.77;83.21
29825;BME280;16713;52.916;12.834;2022-10-30T00:32:44;101266.66;;;12.79;83.30
29825;BME280;16713;52.916;12.834;2022-10-30T00:35:10;101262.47;;;12.69;82.89
29825;BME280;16713;52.916;12.834;2022-10-30T00:37:36;101266.41;;;12.68;83.39
29825;BME280;16713;52.916;12.834;2022-10-30T00:40:04;101263.03;;;12.75;83.75
29825;BME280;16713;52.916;12.834;2022-10-30T00:42:30;101265.78;;;12.75;83.54
29825;BME280;16713;52.916;12.834;2022-10-30T00:44:57;101263.38;;;12.73;82.82
29825;BME280;16713;52.916;12.834;2022-10-30T00:52:31;101262.94;;;12.71;81.37
29825;BME280;16713;52.916;12.834;2022-10-30T00:55:05;101262.72;;;12.64;82.38
29825;BME280;16713;52.916;12.834;2022-10-30T00:57:34;101262.19;;;12.59;82.25
29825;BME280;16713;52.916;12.834;2022-10-30T01:00:04;101262.91;;;12.56;83.25
29825;BME280;16713;52.916;12.834;2022-10-30T01:02:31;101261.91;;;12.48;83.16
29825;BME280;16713;52.916;12.834;2022-10-30T01:04:58;101265.31;;;12.42;82.29
29825;BME280;16713;52.916;12.834;2022-10-30T01:07:25;101269.91;;;12.38;83.97
29825;BME280;16713;52.916;12.834;2022-10-30T01:09:52;101267.25;;;12.41;83.39
29825;BME280;16713;52.916;12.834;2022-10-30T01:12:18;101260.66;;;12.30;82.73
29825;BME280;16713;52.916;12.834;2022-10-30T01:14:48;101267.06;;;12.34;83.31
29825;BME280;16713;52.916;12.834;2022-10-30T01:23:11;101245.88;;;12.07;83.63
29825;BME280;16713;52.916;12.834;2022-10-30T01:28:32;101238.00;;;11.78;85.62
29825;BME280;16713;52.916;12.834;2022-10-30T01:36:29;101233.06;;;11.83;85.96
29825;BME280;16713;52.916;12.834;2022-10-30T01:39:03;101226.88;;;11.86;85.49
29825;BME280;16713;52.916;12.834;2022-10-30T01:41:31;101217.56;;;11.91;84.84
29825;BME280;16713;52.916;12.834;2022-10-30T01:44:00;101216.50;;;11.95;85.09
29825;BME280;16713;52.916;12.834;2022-10-30T01:46:37;101208.81;;;12.01;84.47
29825;BME280;16713;52.916;12.834;2022-10-30T01:51:51;101215.38;;;11.97;83.58
29825;BME280;16713;52.916;12.834;2022-10-30T01:54:32;101211.34;;;11.94;84.13
29825;BME280;16713;52.916;12.834;2022-10-30T01:59:54;101205.06;;;11.93;82.46
29825;BME280;16713;52.916;12.834;2022-10-30T02:02:23;101205.81;;;11.78;82.66
29825;BME280;16713;52.916;12.834;2022-10-30T02:04:50;101213.22;;;11.90;83.21
29825;BME280;16713;52.916;12.834;2022-10-30T02:07:16;101205.34;;;11.88;81.81
29825;BME280;16713;52.916;12.834;2022-10-30T02:09:43;101213.16;;;12.02;81.80
29825;BME280;16713;52.916;12.834;2022-10-30T02:12:10;101208.91;;;12.05;81.93
29825;BME280;16713;52.916;12.834;2022-10-30T02:14:40;101206.22;;;12.08;80.46
29825;BME280;16713;52.916;12.834;2022-10-30T02:17:09;101211.31;;;12.06;81.87
29825;BME280;16713;52.916;12.834;2022-10-30T02:19:37;101209.44;;;12.10;81.81
29825;BME280;16713;52.916;12.834;2022-10-30T02:22:03;101209.78;;;12.09;81.15
29825;BME280;16713;52.916;12.834;2022-10-30T02:24:30;101204.84;;;12.14;81.03
29825;BME280;16713;52.916;12.834;2022-10-30T02:26:57;101205.25;;;12.16;80.63
29825;BME280;16713;52.916;12.834;2022-10-30T02:29:23;101202.34;;;12.09;80.15
29825;BME280;16713;52.916;12.834;2022-10-30T02:31:50;101197.66;;;12.10;79.68
29825;BME280;16713;52.916;12.834;2022-10-30T02:34:16;101198.88;;;12.12;80.46
29825;BME280;16713;52.916;12.834;2022-10-30T02:36:43;101198.88;;;12.12;80.26
29825;BME280;16713;52.916;12.834;2022-10-30T02:39:09;101204.38;;;12.12;79.89
29825;BME280;16713;52.916;12.834;2022-10-30T02:41:35;101203.22;;;12.13;79.76
29825;BME280;16713;52.916;12.834;2022-10-30T02:44:03;101203.22;;;12.13;79.27
29825;BME280;16713;52.916;12.834;2022-10-30T02:46:29;101205.25;;;12.01;79.64
29825;BME280;16713;52.916;12.834;2022-10-30T02:48:55;101205.16;;;11.97;79.15
29825;BME280;16713;52.916;12.834;2022-10-30T02:51:22;101197.72;;;11.97;79.09
29825;BME280;16713;52.916;12.834;2022-10-30T02:53:48;101199.66;;;11.97;79.11
29825;BME280;16713;52.916;12.834;2022-10-30T02:56:15;101199.59;;;11.93;79.36
29825;BME280;16713;52.916;12.834;2022-10-30T02:58:41;101193.06;;;11.86;79.92
29825;BME280;16713;52.916;12.834;2022-10-30T03:01:12;101202.03;;;11.83;79.06
29825;BME280;16713;52.916;12.834;2022-10-30T03:03:40;101194.28;;;11.73;79.11
29825;BME280;16713;52.916;12.834;2022-10-30T03:06:08;101204.50;;;11.72;79.23
29825;BME280;16713;52.916;12.834;2022-10-30T03:08:36;101208.97;;;11.65;79.76
29825;BME280;16713;52.916;12.834;2022-10-30T03:13:31;101223.91;;;11.40;80.42
29825;BME280;16713;52.916;12.834;2022-10-30T03:16:12;101222.97;;;11.48;80.90
29825;BME280;16713;52.916;12.834;2022-10-30T03:18:39;101226.03;;;11.58;80.00
29825;BME280;16713;52.916;12.834;2022-10-30T03:21:08;101239.28;;;11.68;78.61
29825;BME280;16713;52.916;12.834;2022-10-30T03:23:35;101244.38;;;11.42;79.83
29825;BME280;16713;52.916;12.834;2022-10-30T03:26:02;101253.06;;;11.44;80.02
29825;BME280;16713;52.916;12.834;2022-10-30T03:28:30;101253.88;;;11.33;80.34
29825;BME280;16713;52.916;12.834;2022-10-30T03:31:02;101252.66;;;11.18;81.45
29825;BME280;16713;52.916;12.834;2022-10-30T03:33:29;101243.72;;;11.33;81.28
29825;BME280;16713;52.916;12.834;2022-10-30T03:35:55;101228.22;;;11.53;80.69
29825;BME280;16713;52.916;12.834;2022-10-30T03:38:22;101217.94;;;11.38;80.83
29825;BME280;16713;52.916;12.834;2022-10-30T03:40:49;101228.75;;;11.31;81.05
29825;BME280;16713;52.916;12.834;2022-10-30T03:43:15;101222.22;;;11.35;81.28
29825;BME280;16713;52.916;12.834;2022-10-30T03:45:49;101247.97;;;11.31;80.86
29825;BME280;16713;52.916;12.834;2022-10-30T03:48:17;101251.41;;;11.16;81.87
29825;BME280;16713;52.916;12.834;2022-10-30T03:50:44;101260.91;;;11.06;82.09
29825;BME280;16713;52.916;12.834;2022-10-30T03:53:12;101252.59;;;10.91;83.35
29825;BME280;16713;52.916;12.834;2022-10-30T03:55:39;101254.63;;;10.82;84.68
29825;BME280;16713;52.916;12.834;2022-10-30T03:58:06;101253.00;;;10.69;85.47
29825;BME280;16713;52.916;12.834;2022-10-30T04:00:33;101246.19;;;10.75;85.51
29825;BME280;16713;52.916;12.834;2022-10-30T04:03:00;101237.94;;;10.63;86.32
29825;BME280;16713;52.916;12.834;2022-10-30T04:05:28;101237.69;;;10.55;88.06
29825;BME280;16713;52.916;12.834;2022-10-30T04:07:59;101234.50;;;10.66;89.14
29825;BME280;16713;52.916;12.834;2022-10-30T04:10:26;101234.16;;;10.67;89.19
29825;BME280;16713;52.916;12.834;2022-10-30T04:13:04;101228.56;;;10.76;89.16
29825;BME280;16713;52.916;12.834;2022-10-30T04:15:31;101216.00;;;10.99;88.21
29825;BME280;16713;52.916;12.834;2022-10-30T04:17:58;101214.06;;;11.39;86.07
29825;BME280;16713;52.916;12.834;2022-10-30T04:20:26;101211.75;;;11.41;84.98
29825;BME280;16713;52.916;12.834;2022-10-30T04:23:01;101209.31;;;11.63;84.57
29825;BME280;16713;52.916;12.834;2022-10-30T04:25:28;101191.13;;;11.59;83.79
29825;BME280;16713;52.916;12.834;2022-10-30T04:27:55;101192.81;;;11.63;83.94
29825;BME280;16713;52.916;12.834;2022-10-30T04:30:22;101191.13;;;11.59;85.06
29825;BME280;16713;52.916;12.834;2022-10-30T04:32:52;101195.00;;;11.58;86.37
29825;BME280;16713;52.916;12.834;2022-10-30T04:35:20;101196.13;;;11.69;86.76
29825;BME280;16713;52.916;12.834;2022-10-30T04:37:55;101189.59;;;11.73;86.49
29825;BME280;16713;52.916;12.834;2022-10-30T04:40:24;101188.38;;;11.86;85.10
29825;BME280;16713;52.916;12.834;2022-10-30T04:42:51;101181.94;;;11.94;84.94
29825;BME280;16713;52.916;12.834;2022-10-30T04:45:18;101181.84;;;12.07;85.19
29825;BME280;16713;52.916;12.834;2022-10-30T04:47:44;101182.84;;;12.14;84.20
29825;BME280;16713;52.916;12.834;2022-10-30T04:50:11;101182.84;;;12.14;84.33
29825;BME280;16713;52.916;12.834;2022-10-30T04:52:38;101181.88;;;12.22;82.94
29825;BME280;16713;52.916;12.834;2022-10-30T04:55:05;101172.56;;;12.11;83.73
29825;BME280;16713;52.916;12.834;2022-10-30T04:57:32;101176.34;;;12.07;83.98
29825;BME280;16713;52.916;12.834;2022-10-30T04:59:59;101170.06;;;12.06;84.67
29825;BME280;16713;52.916;12.834;2022-10-30T05:02:25;101159.41;;;12.05;84.64
29825;BME280;16713;52.916;12.834;2022-10-30T05:04:52;101166.31;;;11.98;83.93
29825;BME280;16713;52.916;12.834;2022-10-30T05:07:19;101165.47;;;11.82;85.06
29825;BME280;16713;52.916;12.834;2022-10-30T05:09:45;101160.66;;;11.64;86.20
29825;BME280;16713;52.916;12.834;2022-10-30T05:12:12;101156.69;;;11.61;87.39
29825;BME280;16713;52.916;12.834;2022-10-30T05:14:38;101155.28;;;11.55;87.78
29825;BME280;16713;52.916;12.834;2022-10-30T05:17:04;101147.03;;;11.55;88.23
29825;BME280;16713;52.916;12.834;2022-10-30T05:19:31;101154.84;;;11.53;88.80
29825;BME280;16713;52.916;12.834;2022-10-30T05:21:57;101160.69;;;11.52;88.45
29825;BME280;16713;52.916;12.834;2022-10-30T05:24:23;101159.44;;;11.49;89.18
29825;BME280;16713;52.916;12.834;2022-10-30T05:26:50;101156.78;;;11.53;89.33
29825;BME280;16713;52.916;12.834;2022-10-30T05:29:16;101152.09;;;11.53;88.89
29825;BME280;16713;52.916;12.834;2022-10-30T05:31:42;101148.97;;;11.67;88.40
29825;BME280;16713;52.916;12.834;2022-10-30T05:34:09;101147.66;;;11.49;88.56
29825;BME280;16713;52.916;12.834;2022-10-30T05:36:35;101160.25;;;11.50;89.82
29825;BME280;16713;52.916;12.834;2022-10-30T05:39:01;101171.81;;;11.43;89.84
29825;BME280;16713;52.916;12.834;2022-10-30T05:41:28;101184.03;;;11.58;89.77
29825;BME280;16713;52.916;12.834;2022-10-30T05:43:55;101180.88;;;11.71;89.64
29825;BME280;16713;52.916;12.834;2022-10-30T05:46:21;101160.66;;;11.64;89.28
29825;BME280;16713;52.916;12.834;2022-10-30T05:48:48;101164.56;;;11.63;89.88
29825;BME280;16713;52.916;12.834;2022-10-30T05:51:14;101168.41;;;11.74;89.80
29825;BME280;16713;52.916;12.834;2022-10-30T05:53:40;101153.88;;;11.73;88.29
29825;BME280;16713;52.916;12.834;2022-10-30T05:56:07;101151.38;;;11.84;88.35
29825;BME280;16713;52.916;12.834;2022-10-30T05:58:33;101145.75;;;11.92;87.86
29825;BME280;16713;52.916;12.834;2022-10-30T06:01:04;101137.13;;;11.94;87.03
29825;BME280;16713;52.916;12.834;2022-10-30T06:03:30;101137.84;;;11.91;86.76
29825;BME280;16713;52.916;12.834;2022-10-30T06:05:56;101117.44;;;11.76;86.38
29825;BME280;16713;52.916;12.834;2022-10-30T06:08:23;101120.84;;;11.85;88.30
29825;BME280;16713;52.916;12.834;2022-10-30T06:10:49;101120.78;;;11.70;88.16
29825;BME280;16713;52.916;12.834;2022-10-30T06:13:16;101116.09;;;11.70;87.57
29825;BME280;16713;52.916;12.834;2022-10-30T06:15:42;101119.81;;;11.62;88.21
29825;BME280;16713;52.916;12.834;2022-10-30T06:18:08;101122.31;;;11.67;87.92
29825;BME280;16713;52.916;12.834;2022-10-30T06:20:35;101120.00;;;11.69;88.38
29825;BME280;16713;52.916;12.834;2022-10-30T06:23:03;101116.34;;;11.65;88.54
29825;BME280;16713;52.916;12.834;2022-10-30T06:25:32;101117.41;;;11.61;89.24
29825;BME280;16713;52.916;12.834;2022-10-30T06:28:06;101112.38;;;11.63;89.57
29825;BME280;16713;52.916;12.834;2022-10-30T06:30:32;101116.00;;;11.82;90.05
29825;BME280;16713;52.916;12.834;2022-10-30T06:33:00;101118.53;;;12.03;88.84
29825;BME280;16713;52.916;12.834;2022-10-30T06:35:27;101117.72;;;12.18;89.19
29825;BME280;16713;52.916;12.834;2022-10-30T06:37:55;101131.03;;;12.16;87.92
29825;BME280;16713;52.916;12.834;2022-10-30T06:40:22;101132.38;;;12.22;87.80
29825;BME280;16713;52.916;12.834;2022-10-30T06:42:50;101125.81;;;12.27;87.97
29825;BME280;16713;52.916;12.834;2022-10-30T06:45:18;101137.06;;;12.37;87.06
29825;BME280;16713;52.916;12.834;2022-10-30T06:47:45;101143.72;;;12.36;88.27
29825;BME280;16713;52.916;12.834;2022-10-30T06:50:14;101148.50;;;12.39;86.90
29825;BME280;16713;52.916;12.834;2022-10-30T06:52:41;101170.59;;;12.43;87.97
29825;BME280;16713;52.916;12.834;2022-10-30T06:55:08;101165.19;;;12.46;87.07
29825;BME280;16713;52.916;12.834;2022-10-30T06:57:35;101173.59;;;12.53;87.33
29825;BME280;16713;52.916;12.834;2022-10-30T07:00:03;101173.88;;;12.64;86.12
29825;BME280;16713;52.916;12.834;2022-10-30T07:02:29;101181.81;;;12.65;85.85
29825;BME280;16713;52.916;12.834;2022-10-30T07:04:55;101176.03;;;12.70;85.39
29825;BME280;16713;52.916;12.834;2022-10-30T07:07:22;101178.50;;;12.75;85.13
29825;BME280;16713;52.916;12.834;2022-10-30T07:09:48;101172.03;;;12.68;85.97
29825;BME280;16713;52.916;12.834;2022-10-30T07:12:15;101178.13;;;12.61;85.92
29825;BME280;16713;52.916;12.834;2022-10-30T07:14:41;101173.19;;;12.67;86.65
29825;BME280;16713;52.916;12.834;2022-10-30T07:17:08;101180.97;;;12.80;85.93
29825;BME280;16713;52.916;12.834;2022-10-30T07:19:34;101170.25;;;12.75;85.69
29825;BME280;16713;52.916;12.834;2022-10-30T07:22:01;101177.75;;;12.63;85.35
29825;BME280;16713;52.916;12.834;2022-10-30T07:24:27;101170.22;;;12.60;84.82
29825;BME280;16713;52.916;12.834;2022-10-30T07:26:55;101167.91;;;12.62;84.60
29825;BME280;16713;52.916;12.834;2022-10-30T07:29:21;101183.38;;;12.35;86.10
29825;BME280;16713;52.916;12.834;2022-10-30T07:31:47;101178.41;;;12.25;87.28
29825;BME280;16713;52.916;12.834;2022-10-30T07:34:27;101179.47;;;12.21;86.74
29825;BME280;16713;52.916;12.834;2022-10-30T07:36:54;101182.50;;;12.16;87.87
29825;BME280;16713;52.916;12.834;2022-10-30T07:39:20;101180.25;;;12.21;88.09
29825;BME280;16713;52.916;12.834;2022-10-30T07:41:48;101183.56;;;12.11;89.34
29825;BME280;16713;52.916;12.834;2022-10-30T07:44:15;101183.63;;;11.99;88.93
29825;BME280;16713;52.916;12.834;2022-10-30T07:46:42;101190.63;;;11.97;89.23
29825;BME280;16713;52.916;12.834;2022-10-30T07:49:08;101191.84;;;11.99;90.05
29825;BME280;16713;52.916;12.834;2022-10-30T07:51:34;101195.53;;;12.03;89.96
29825;BME280;16713;52.916;12.834;2022-10-30T07:54:01;101193.91;;;12.02;89.55
29825;BME280;16713;52.916;12.834;2022-10-30T07:56:27;101195.06;;;12.01;90.51
29825;BME280;16713;52.916;12.834;2022-10-30T07:58:53;101190.91;;;12.07;90.76
29825;BME280;16713;52.916;12.834;2022-10-30T08:01:20;101196.66;;;12.02;91.10
29825;BME280;16713;52.916;12.834;2022-10-30T08:03:46;101203.31;;;12.01;91.06
29825;BME280;16713;52.916;12.834;2022-10-30T08:06:12;101202.16;;;12.02;92.31
29825;BME280;16713;52.916;12.834;2022-10-30T08:08:39;101210.00;;;12.16;93.11
29825;BME280;16713;52.916;12.834;2022-10-30T08:11:08;101205.00;;;12.06;93.73
29825;BME280;16713;52.916;12.834;2022-10-30T08:13:35;101203.78;;;12.19;92.94
29825;BME280;16713;52.916;12.834;2022-10-30T08:16:01;101198.47;;;12.26;93.08
29825;BME280;16713;52.916;12.834;2022-10-30T08:18:27;101199.16;;;12.23;92.32
29825;BME280;16713;52.916;12.834;2022-10-30T08:20:54;101200.50;;;12.29;92.62
29825;BME280;16713;52.916;12.834;2022-10-30T08:23:20;101199.59;;;12.25;94.01
29825;BME280;16713;52.916;12.834;2022-10-30T08:25:47;101202.56;;;12.32;94.11
29825;BME280;16713;52.916;12.834;2022-10-30T08:28:13;101195.16;;;12.36;94.60
29825;BME280;16713;52.916;12.834;2022-10-30T08:30:40;101201.75;;;12.47;92.86
29825;BME280;16713;52.916;12.834;2022-10-30T08:33:10;101199.28;;;12.57;93.56
29825;BME280;16713;52.916;12.834;2022-10-30T08:35:45;101202.38;;;12.56;93.40
29825;BME280;16713;52.916;12.834;2022-10-30T08:38:12;101189.59;;;12.63;94.80
29825;BME280;16713;52.916;12.834;2022-10-30T08:40:38;101193.88;;;12.76;92.83
29825;BME280;16713;52.916;12.834;2022-10-30T08:43:04;101178.94;;;12.77;93.57
29825;BME280;16713;52.916;12.834;2022-10-30T08:45:31;101179.38;;;12.79;94.75
29825;BME280;16713;52.916;12.834;2022-10-30T08:47:58;101174.03;;;12.86;94.21
29825;BME280;16713;52.916;12.834;2022-10-30T08:50:26;101177.56;;;13.02;93.78
29825;BME280;16713;52.916;12.834;2022-10-30T08:52:52;101171.59;;;13.00;94.08
29825;BME280;16713;52.916;12.834;2022-10-30T08:55:20;101170.88;;;13.03;94.58
29825;BME280;16713;52.916;12.834;2022-10-30T08:57:46;101172.19;;;13.09;94.07
29825;BME280;16713;52.916;12.834;2022-10-30T09:00:13;101161.81;;;13.03;95.07
29825;BME280;16713;52.916;12.834;2022-10-30T09:02:39;101168.66;;;13.09;94.11
29825;BME280;16713;52.916;12.834;2022-10-30T09:05:07;101166.28;;;13.07;95.02
29825;BME280;16713;52.916;12.834;2022-10-30T09:07:34;101154.81;;;13.05;94.65
29825;BME280;16713;52.916;12.834;2022-10-30T09:10:02;101158.88;;;13.11;94.88
29825;BME280;16713;52.916;12.834;2022-10-30T09:12:28;101162.06;;;13.13;95.93
29825;BME280;16713;52.916;12.834;2022-10-30T09:14:55;101169.03;;;13.26;95.58
29825;BME280;16713;52.916;12.834;2022-10-30T09:17:21;101167.88;;;13.27;94.04
29825;BME280;16713;52.916;12.834;2022-10-30T09:19:48;101178.16;;;13.30;93.75
29825;BME280;16713;52.916;12.834;2022-10-30T09:22:14;101166.84;;;13.35;94.20
29825;BME280;16713;52.916;12.834;2022-10-30T09:24:41;101172.81;;;13.37;94.35
29825;BME280;16713;52.916;12.834;2022-10-30T09:27:07;101173.63;;;13.38;94.39
29825;BME280;16713;52.916;12.834;2022-10-30T09:29:33;101172.53;;;13.43;93.22
29825;BME280;16713;52.916;12.834;2022-10-30T09:32:02;101175.13;;;13.35;94.20
29825;BME280;16713;52.916;12.834;2022-10-30T09:34:30;101181.44;;;13.36;95.15
29825;BME280;16713;52.916;12.834;2022-10-30T09:36:56;101172.72;;;13.34;95.24
29825;BME280;16713;52.916;12.834;2022-10-30T09:39:23;101175.94;;;13.36;95.16
29825;BME280;16713;52.916;12.834;2022-10-30T09:44:55;101176.50;;;13.45;93.29
29825;BME280;16713;52.916;12.834;2022-10-30T09:50:35;101188.13;;;13.54;93.81
29825;BME280;16713;52.916;12.834;2022-10-30T10:01:46;101189.44;;;13.79;93.51
29825;BME280;16713;52.916;12.834;2022-10-30T10:04:32;101181.91;;;13.76;94.36
29825;BME280;16713;52.916;12.834;2022-10-30T10:07:27;101188.19;;;13.77;93.41
29825;BME280;16713;52.916;12.834;2022-10-30T10:09:57;101180.81;;;13.81;93.52
29825;BME280;16713;52.916;12.834;2022-10-30T10:12:32;101177.59;;;13.79;93.31
29825;BME280;16713;52.916;12.834;2022-10-30T10:15:03;101187.31;;;13.92;92.57
29825;BME280;16713;52.916;12.834;2022-10-30T10:17:35;101189.25;;;13.91;92.39
29825;BME280;16713;52.916;12.834;2022-10-30T10:20:31;101194.38;;;13.89;93.09
29825;BME280;16713;52.916;12.834;2022-10-30T10:23:08;101195.28;;;13.97;93.91
29825;BME280;16713;52.916;12.834;2022-10-30T10:25:39;101192.09;;;13.95;91.86
29825;BME280;16713;52.916;12.834;2022-10-30T10:31:19;101192.25;;;14.02;91.98
29825;BME280;16713;52.916;12.834;2022-10-30T10:34:26;101194.31;;;14.08;92.47
29825;BME280;16713;52.916;12.834;2022-10-30T10:37:15;101187.63;;;14.09;92.56
29825;BME280;16713;52.916;12.834;2022-10-30T10:51:36;101169.13;;;14.55;89.82
29825;BME280;16713;52.916;12.834;2022-10-30T10:56:42;101175.19;;;14.64;89.81
29825;BME280;16713;52.916;12.834;2022-10-30T10:59:15;101184.34;;;14.68;89.02
29825;BME280;16713;52.916;12.834;2022-10-30T11:04:45;101173.16;;;14.84;87.22
29825;BME280;16713;52.916;12.834;2022-10-30T11:07:20;101173.25;;;14.91;86.91
29825;BME280;16713;52.916;12.834;2022-10-30T11:09:52;101178.78;;;14.91;87.86
29825;BME280;16713;52.916;12.834;2022-10-30T11:12:23;101175.28;;;14.94;87.16
29825;BME280;16713;52.916;12.834;2022-10-30T11:14:50;101167.22;;;15.11;86.32
29825;BME280;16713;52.916;12.834;2022-10-30T11:17:31;101167.19;;;15.08;86.33
29825;BME280;16713;52.916;12.834;2022-10-30T11:20:11;101176.19;;;15.31;85.35
29825;BME280;16713;52.916;12.834;2022-10-30T11:22:42;101175.81;;;15.32;85.80
29825;BME280;16713;52.916;12.834;2022-10-30T11:25:24;101164.91;;;15.17;85.39
29825;BME280;16713;52.916;12.834;2022-10-30T11:27:58;101169.66;;;15.16;85.84
29825;BME280;16713;52.916;12.834;2022-10-30T11:30:26;101172.09;;;15.21;85.00
29825;BME280;16713;52.916;12.834;2022-10-30T11:32:55;101167.47;;;15.29;85.32
29825;BME280;16713;52.916;12.834;2022-10-30T11:35:23;101178.97;;;15.34;84.22
29825;BME280;16713;52.916;12.834;2022-10-30T11:37:52;101174.03;;;15.47;84.33
29825;BME280;16713;52.916;12.834;2022-10-30T11:40:36;101182.75;;;15.49;83.92
29825;BME280;16713;52.916;12.834;2022-10-30T11:43:03;101187.63;;;15.33;84.00
29825;BME280;16713;52.916;12.834;2022-10-30T11:45:39;101190.28;;;15.52;84.32
29825;BME280;16713;52.916;12.834;2022-10-30T11:48:24;101192.00;;;15.63;83.62
29825;BME280;16713;52.916;12.834;2022-10-30T11:50:57;101185.22;;;15.57;83.33
29825;BME280;16713;52.916;12.834;2022-10-30T11:53:28;101187.72;;;15.66;82.77
29825;BME280;16713;52.916;12.834;2022-10-30T11:55:57;101188.81;;;15.61;83.34
29825;BME280;16713;52.916;12.834;2022-10-30T11:58:30;101198.28;;;15.93;82.66
29825;BME280;16713;52.916;12.834;2022-10-30T12:01:21;101198.06;;;15.76;82.17
29825;BME280;16713;52.916;12.834;2022-10-30T12:03:49;101197.69;;;15.77;83.15
29825;BME280;16713;52.916;12.834;2022-10-30T12:06:19;101204.22;;;15.95;82.41
29825;BME280;16713;52.916;12.834;2022-10-30T12:11:37;101203.41;;;15.91;81.87
29825;BME280;16713;52.916;12.834;2022-10-30T12:14:05;101207.66;;;15.82;81.98
29825;BME280;16713;52.916;12.834;2022-10-30T12:16:32;101210.03;;;15.83;82.14
29825;BME280;16713;52.916;12.834;2022-10-30T12:19:04;101207.00;;;15.95;82.26
29825;BME280;16713;52.916;12.834;2022-10-30T12:21:40;101201.50;;;15.99;81.64
29825;BME280;16713;52.916;12.834;2022-10-30T12:24:35;101199.94;;;15.98;81.99
29825;BME280;16713;52.916;12.834;2022-10-30T12:27:10;101197.06;;;15.91;81.49
29825;BME280;16713;52.916;12.834;2022-10-30T12:30:02;101206.63;;;15.97;81.20
29825;BME280;16713;52.916;12.834;2022-10-30T12:32:46;101202.50;;;15.84;82.46
29825;BME280;16713;52.916;12.834;2022-10-30T12:38:26;101201.47;;;15.95;81.36
29825;BME280;16713;52.916;12.834;2022-10-30T12:41:15;101206.50;;;15.86;81.83
29825;BME280;16713;52.916;12.834;2022-10-30T12:43:48;101204.91;;;15.85;81.32
29825;BME280;16713;52.916;12.834;2022-10-30T12:46:28;101207.28;;;15.83;81.65
29825;BME280;16713;52.916;12.834;2022-10-30T12:49:28;101208.94;;;15.91;81.52
29825;BME280;16713;52.916;12.834;2022-10-30T12:51:57;101201.59;;;16.06;81.95
29825;BME280;16713;52.916;12.834;2022-10-30T12:57:26;101200.06;;;16.12;81.19
29825;BME280;16713;52.916;12.834;2022-10-30T13:02:44;101204.50;;;16.20;81.44
29825;BME280;16713;52.916;12.834;2022-10-30T13:08:01;101201.97;;;16.41;79.61
29825;BME280;16713;52.916;12.834;2022-10-30T13:10:33;101198.03;;;16.46;79.15
29825;BME280;16713;52.916;12.834;2022-10-30T13:13:17;101209.03;;;16.39;79.99
29825;BME280;16713;52.916;12.834;2022-10-30T13:15:56;101197.38;;;16.63;78.57
29825;BME280;16713;52.916;12.834;2022-10-30T13:18:25;101198.56;;;16.62;78.11
29825;BME280;16713;52.916;12.834;2022-10-30T13:23:49;101201.16;;;16.41;78.32
29825;BME280;16713;52.916;12.834;2022-10-30T13:29:28;101199.47;;;16.33;78.96
29825;BME280;16713;52.916;12.834;2022-10-30T13:32:34;101206.41;;;16.16;79.62
29825;BME280;16713;52.916;12.834;2022-10-30T13:39:20;101206.41;;;16.16;79.26
29825;BME280;16713;52.916;12.834;2022-10-30T13:51:49;101204.31;;;15.66;81.07
29825;BME280;16713;52.916;12.834;2022-10-30T13:54:29;101211.78;;;15.65;81.71
29825;BME280;16713;52.916;12.834;2022-10-30T13:57:04;101203.63;;;15.46;82.23
29825;BME280;16713;52.916;12.834;2022-10-30T14:02:38;101203.84;;;15.34;82.67
29825;BME280;16713;52.916;12.834;2022-10-30T14:05:29;101199.78;;;15.25;83.48
29825;BME280;16713;52.916;12.834;2022-10-30T14:10:52;101199.22;;;15.12;84.07
29825;BME280;16713;52.916;12.834;2022-10-30T14:13:27;101199.09;;;15.05;84.25
29825;BME280;16713;52.916;12.834;2022-10-30T14:16:03;101195.88;;;15.00;84.66
29825;BME280;16713;52.916;12.834;2022-10-30T14:21:55;101202.09;;;14.93;84.89
29825;BME280;16713;52.916;12.834;2022-10-30T14:24:30;101204.34;;;14.88;85.28
29825;BME280;16713;52.916;12.834;2022-10-30T14:29:35;101188.91;;;14.83;85.55
29825;BME280;16713;52.916;12.834;2022-10-30T14:37:08;101175.00;;;14.76;86.04
29825;BME280;16713;52.916;12.834;2022-10-30T14:39:46;101187.94;;;14.72;85.92
29825;BME280;16713;52.916;12.834;2022-10-30T14:50:51;101180.66;;;14.60;87.09
29825;BME280;16713;52.916;12.834;2022-10-30T14:53:40;101175.03;;;14.57;87.35
29825;BME280;16713;52.916;12.834;2022-10-30T15:02:04;101173.97;;;14.39;87.91